createdAt,value
2019-01-04T00:00:37.278Z,12.80
2019-01-04T00:03:10.928Z,12.32
2019-01-04T00:05:44.611Z,13.23
2019-01-04T00:08:18.322Z,11.82
2019-01-04T00:10:52.122Z,11.55
2019-01-04T00:13:25.922Z,13.23
2019-01-04T00:15:59.644Z,12.30
2019-01-04T00:18:33.328Z,13.77
2019-01-04T00:21:06.897Z,13.65
2019-01-04T00:23:40.488Z,12.75
2019-01-04T00:26:14.099Z,12.20
2019-01-04T00:28:47.702Z,13.30
2019-01-04T00:31:21.284Z,13.02
2019-01-04T00:33:54.871Z,14.45
2019-01-04T00:36:29.359Z,12.82
2019-01-04T00:39:03.009Z,12.20
2019-01-04T00:41:36.666Z,13.30
2019-01-04T00:44:10.450Z,13.85
2019-01-04T00:46:44.143Z,13.68
2019-01-04T00:49:17.938Z,12.43
2019-01-04T00:51:51.621Z,12.82
2019-01-04T00:54:25.356Z,12.40
2019-01-04T00:57:06.677Z,12.35
2019-01-04T01:00:10.925Z,11.70
2019-01-04T01:02:50.370Z,10.15
2019-01-04T01:05:36.123Z,11.75
2019-01-04T01:11:40.089Z,15.60
2019-01-04T01:14:33.326Z,10.57
2019-01-04T01:17:27.270Z,11.15
2019-01-04T01:20:12.338Z,12.32
2019-01-04T01:22:57.867Z,13.93
2019-01-04T01:25:38.332Z,12.13
2019-01-04T01:31:20.887Z,16.80
2019-01-04T01:34:15.229Z,12.43
2019-01-04T01:37:06.164Z,13.98
2019-01-04T01:39:56.293Z,12.73
2019-01-04T01:45:45.920Z,17.80
2019-01-04T01:48:19.595Z,13.60
2019-01-04T01:53:48.708Z,17.20
2019-01-04T01:56:22.325Z,14.07
2019-01-04T01:58:56.139Z,12.48
2019-01-04T02:01:29.721Z,12.95
2019-01-04T02:04:03.480Z,12.93
2019-01-04T02:06:37.131Z,15.27
2019-01-04T02:09:10.686Z,12.37
2019-01-04T02:11:44.345Z,13.88
2019-01-04T02:14:18.329Z,13.48
2019-01-04T02:16:52.203Z,12.43
2019-01-04T02:19:26.568Z,12.88
2019-01-04T02:22:00.135Z,12.10
2019-01-04T02:24:34.002Z,12.70
2019-01-04T02:27:08.390Z,11.40
2019-01-04T02:29:42.090Z,12.73
2019-01-04T02:32:15.715Z,12.85
2019-01-04T02:34:49.516Z,12.00
2019-01-04T02:37:23.844Z,12.65
2019-01-04T02:39:58.308Z,12.37
2019-01-04T02:42:32.087Z,11.55
2019-01-04T02:45:05.739Z,10.60
2019-01-04T02:47:39.587Z,11.57
2019-01-04T02:50:13.376Z,10.95
2019-01-04T02:52:46.976Z,11.57
2019-01-04T02:55:20.744Z,11.15
2019-01-04T02:57:54.387Z,10.15
2019-01-04T03:00:28.141Z,10.00
2019-01-04T03:03:01.915Z,10.73
2019-01-04T03:05:35.735Z,12.52
2019-01-04T03:08:09.453Z,10.70
2019-01-04T03:10:43.081Z,9.70
2019-01-04T03:13:16.615Z,10.15
2019-01-04T03:15:51.019Z,11.32
2019-01-04T03:18:24.768Z,10.77
2019-01-04T03:20:58.503Z,10.75
2019-01-04T03:23:32.202Z,11.15
2019-01-04T03:26:05.807Z,10.23
2019-01-04T03:28:39.423Z,10.45
2019-01-04T03:31:13.272Z,10.38
2019-01-04T03:33:47.652Z,10.68
2019-01-04T03:36:21.254Z,10.43
2019-01-04T03:38:55.773Z,9.85
2019-01-04T03:41:30.184Z,10.02
2019-01-04T03:44:03.875Z,9.82
2019-01-04T03:46:37.456Z,10.50
2019-01-04T03:49:11.076Z,10.80
2019-01-04T03:51:44.707Z,11.98
2019-01-04T03:54:18.365Z,12.35
2019-01-04T03:56:52.015Z,11.57
2019-01-04T03:59:25.569Z,10.50
2019-01-04T04:01:59.117Z,12.48
2019-01-04T04:04:32.889Z,10.02
2019-01-04T04:07:06.471Z,11.48
2019-01-04T04:09:40.947Z,11.35
2019-01-04T04:12:14.625Z,10.80
2019-01-04T04:14:48.458Z,12.50
2019-01-04T04:17:22.062Z,11.68
2019-01-04T04:19:56.556Z,12.13
2019-01-04T04:22:30.552Z,11.55
2019-01-04T04:25:04.900Z,13.30
2019-01-04T04:27:38.681Z,10.13
2019-01-04T04:30:13.219Z,9.73
2019-01-04T04:32:47.447Z,11.55
2019-01-04T04:35:21.140Z,11.75
2019-01-04T04:37:54.705Z,11.88
2019-01-04T04:40:28.568Z,11.55
2019-01-04T04:43:02.343Z,11.12
2019-01-04T04:45:35.988Z,11.38
2019-01-04T04:48:09.665Z,11.52
2019-01-04T04:50:43.391Z,11.55
2019-01-04T04:53:16.994Z,10.48
2019-01-04T04:55:50.711Z,11.18
2019-01-04T04:58:24.299Z,11.80
2019-01-04T05:00:58.926Z,11.00
2019-01-04T05:03:32.621Z,12.13
2019-01-04T05:06:06.439Z,11.88
2019-01-04T05:08:40.156Z,11.82
2019-01-04T05:11:13.815Z,9.68
2019-01-04T05:13:47.550Z,11.30
2019-01-04T05:16:21.037Z,9.88
2019-01-04T05:18:54.575Z,11.40
2019-01-04T05:21:28.282Z,11.60
2019-01-04T05:24:01.999Z,11.43
2019-01-04T05:26:35.553Z,12.63
2019-01-04T05:29:09.254Z,11.75
2019-01-04T05:31:42.798Z,10.05
2019-01-04T05:34:16.345Z,12.27
2019-01-04T05:36:50.015Z,9.50
2019-01-04T05:39:23.707Z,10.45
2019-01-04T05:41:57.425Z,11.02
2019-01-04T05:44:31.063Z,11.27
2019-01-04T05:47:04.821Z,9.23
2019-01-04T05:49:38.374Z,10.10
2019-01-04T05:52:12.189Z,9.68
2019-01-04T05:54:45.751Z,11.55
2019-01-04T05:57:19.350Z,10.52
2019-01-04T05:59:52.987Z,10.93
2019-01-04T06:02:26.544Z,10.60
2019-01-04T06:05:00.160Z,11.05
2019-01-04T06:07:34.453Z,10.02
2019-01-04T06:10:08.172Z,11.15
2019-01-04T06:12:41.881Z,11.77
2019-01-04T06:15:15.569Z,11.10
2019-01-04T06:17:49.155Z,10.98
2019-01-04T06:20:22.754Z,11.50
2019-01-04T06:22:57.017Z,10.73
2019-01-04T06:25:30.587Z,13.70
2019-01-04T06:28:04.958Z,11.18
2019-01-04T06:30:38.733Z,9.95
2019-01-04T06:33:12.367Z,11.80
2019-01-04T06:35:45.939Z,10.60
2019-01-04T06:38:19.463Z,10.93
2019-01-04T06:40:53.039Z,11.23
2019-01-04T06:43:26.592Z,11.12
2019-01-04T06:46:00.656Z,11.88
2019-01-04T06:48:34.235Z,11.40
2019-01-04T06:51:08.767Z,12.52
2019-01-04T06:53:42.473Z,10.50
2019-01-04T06:56:16.144Z,12.68
2019-01-04T06:58:49.764Z,11.77
2019-01-04T07:01:23.374Z,11.07
2019-01-04T07:03:57.179Z,10.20
2019-01-04T07:06:30.922Z,13.55
2019-01-04T07:09:04.704Z,11.40
2019-01-04T07:11:38.404Z,11.27
2019-01-04T07:14:12.108Z,11.45
2019-01-04T07:16:46.641Z,12.23
2019-01-04T07:19:20.451Z,10.90
2019-01-04T07:21:54.146Z,10.43
2019-01-04T07:24:27.694Z,13.88
2019-01-04T07:27:01.368Z,12.90
2019-01-04T07:29:35.132Z,10.30
2019-01-04T07:32:08.854Z,12.90
2019-01-04T07:34:42.682Z,12.50
2019-01-04T07:37:16.438Z,11.80
2019-01-04T07:39:50.116Z,11.60
2019-01-04T07:42:23.668Z,12.30
2019-01-04T07:44:57.526Z,13.62
2019-01-04T07:47:31.352Z,12.50
2019-01-04T07:50:05.123Z,12.15
2019-01-04T07:52:39.014Z,13.20
2019-01-04T07:55:12.699Z,12.77
2019-01-04T07:57:46.254Z,19.98
2019-01-04T08:00:20.037Z,11.80
2019-01-04T08:02:53.576Z,10.57
2019-01-04T08:05:27.326Z,12.37
2019-01-04T08:08:00.934Z,11.70
2019-01-04T08:10:34.610Z,11.73
2019-01-04T08:13:08.297Z,13.13
2019-01-04T08:15:42.645Z,11.95
2019-01-04T08:18:16.350Z,11.02
2019-01-04T08:20:49.951Z,12.13
2019-01-04T08:23:23.684Z,11.75
2019-01-04T08:25:57.234Z,11.18
2019-01-04T08:28:31.228Z,11.40
2019-01-04T08:31:05.076Z,10.90
2019-01-04T08:33:38.899Z,10.15
2019-01-04T08:36:13.073Z,12.93
2019-01-04T08:38:47.321Z,11.80
2019-01-04T08:41:21.233Z,11.12
2019-01-04T08:43:55.053Z,9.70
2019-01-04T08:46:28.881Z,12.77
2019-01-04T08:49:02.665Z,11.55
2019-01-04T08:51:36.567Z,10.77
2019-01-04T08:54:10.359Z,11.05
2019-01-04T08:56:43.996Z,11.23
2019-01-04T08:59:17.744Z,10.18
2019-01-04T09:01:51.452Z,10.57
2019-01-04T09:04:25.289Z,11.35
2019-01-04T09:06:59.865Z,11.70
2019-01-04T09:09:33.370Z,8.85
2019-01-04T09:12:06.999Z,9.13
2019-01-04T09:14:40.727Z,10.02
2019-01-04T09:17:14.609Z,9.05
2019-01-04T09:19:48.231Z,8.73
2019-01-04T09:22:22.003Z,10.20
2019-01-04T09:24:55.697Z,10.18
2019-01-04T09:27:29.407Z,10.27
2019-01-04T09:30:03.001Z,9.63
2019-01-04T09:32:36.729Z,9.20
2019-01-04T09:35:10.294Z,9.73
2019-01-04T09:37:44.823Z,12.02
2019-01-04T09:40:18.535Z,11.95
2019-01-04T09:42:52.993Z,9.38
2019-01-04T09:45:26.727Z,8.60
2019-01-04T09:48:00.354Z,9.02
2019-01-04T09:50:34.861Z,8.48
2019-01-04T09:53:09.376Z,8.23
2019-01-04T09:55:43.951Z,8.25
2019-01-04T09:58:18.382Z,8.30
2019-01-04T10:00:52.140Z,8.18
2019-01-04T10:03:26.679Z,7.70
2019-01-04T10:06:00.437Z,7.57
2019-01-04T10:08:34.084Z,8.65
2019-01-04T10:11:07.787Z,7.43
2019-01-04T10:13:45.974Z,8.27
2019-01-04T10:16:21.674Z,7.35
2019-01-04T10:18:56.778Z,7.35
2019-01-04T10:21:29.735Z,8.00
2019-01-04T10:24:03.344Z,8.60
2019-01-04T10:26:36.943Z,8.00
2019-01-04T10:29:10.484Z,9.23
2019-01-04T10:31:44.049Z,8.55
2019-01-04T10:34:18.594Z,6.65
2019-01-04T10:36:52.324Z,7.37
2019-01-04T10:39:25.896Z,7.90
2019-01-04T10:41:59.636Z,7.65
2019-01-04T10:44:33.206Z,9.00
2019-01-04T10:47:06.824Z,8.15
2019-01-04T10:49:40.560Z,8.88
2019-01-04T10:52:14.134Z,8.50
2019-01-04T10:54:47.864Z,9.52
2019-01-04T10:57:22.261Z,7.47
2019-01-04T10:59:56.038Z,8.10
2019-01-04T11:02:30.621Z,6.72
2019-01-04T11:05:04.306Z,9.05
2019-01-04T11:07:38.811Z,11.23
2019-01-04T11:10:12.557Z,8.35
2019-01-04T11:12:46.321Z,8.20
2019-01-04T11:15:20.094Z,10.88
2019-01-04T11:17:54.557Z,8.55
2019-01-04T11:20:38.703Z,7.97
2019-01-04T11:23:33.174Z,8.10
2019-01-04T11:26:14.248Z,7.40
2019-01-04T11:28:50.671Z,8.60
2019-01-04T11:31:24.411Z,7.95
2019-01-04T11:34:15.819Z,8.27
2019-01-04T11:39:48.000Z,10.93
2019-01-04T11:42:33.467Z,8.23
2019-01-04T11:45:23.154Z,8.70
2019-01-04T11:50:52.552Z,12.33
2019-01-04T11:53:26.252Z,9.98
2019-01-04T11:55:59.910Z,9.05
2019-01-04T11:58:34.366Z,8.30
2019-01-04T12:01:08.127Z,8.02
2019-01-04T12:03:41.757Z,10.43
2019-01-04T12:06:17.246Z,9.75
2019-01-04T12:08:51.142Z,8.02
2019-01-04T12:11:24.731Z,9.20
2019-01-04T12:13:59.239Z,11.70
2019-01-04T12:16:32.875Z,7.87
2019-01-04T12:19:06.564Z,8.23
2019-01-04T12:21:40.118Z,8.50
2019-01-04T12:24:13.790Z,9.23
2019-01-04T12:26:47.513Z,7.78
2019-01-04T12:29:22.074Z,8.68
2019-01-04T12:31:56.614Z,8.73
2019-01-04T12:34:30.915Z,8.90
2019-01-04T12:37:04.593Z,7.87
2019-01-04T12:39:38.440Z,8.20
2019-01-04T12:42:12.999Z,7.80
2019-01-04T12:44:46.593Z,8.18
2019-01-04T12:47:21.236Z,8.63
2019-01-04T12:49:53.948Z,7.32
2019-01-04T12:52:27.531Z,10.30
2019-01-04T12:55:01.207Z,8.55
2019-01-04T12:57:34.846Z,8.65
2019-01-04T13:00:08.685Z,9.50
2019-01-04T13:02:42.487Z,9.45
2019-01-04T13:05:17.231Z,9.57
2019-01-04T13:07:50.812Z,9.82
2019-01-04T13:10:24.411Z,8.73
2019-01-04T13:12:58.174Z,8.15
2019-01-04T13:15:31.965Z,9.35
2019-01-04T13:18:06.369Z,9.20
2019-01-04T13:20:40.035Z,8.95
2019-01-04T13:23:13.859Z,8.50
2019-01-04T13:25:47.516Z,8.00
2019-01-04T13:28:21.261Z,8.30
2019-01-04T13:30:54.926Z,8.05
2019-01-04T13:33:28.604Z,7.65
2019-01-04T13:36:02.923Z,8.05
2019-01-04T13:38:36.682Z,7.50
2019-01-04T13:41:11.164Z,8.60
2019-01-04T13:43:44.964Z,7.20
2019-01-04T13:46:18.581Z,7.93
2019-01-04T13:48:52.416Z,8.20
2019-01-04T13:51:26.920Z,10.10
2019-01-04T13:54:00.614Z,8.07
2019-01-04T13:56:34.256Z,8.63
2019-01-04T13:59:08.068Z,7.68
2019-01-04T14:01:41.845Z,6.55
2019-01-04T14:04:15.387Z,7.85
2019-01-04T14:06:49.015Z,7.75
2019-01-04T14:09:22.789Z,8.90
2019-01-04T14:11:56.367Z,6.93
2019-01-04T14:14:30.977Z,7.20
2019-01-04T14:17:04.856Z,5.93
2019-01-04T14:19:39.276Z,6.35
2019-01-04T14:22:13.753Z,7.35
2019-01-04T14:24:47.443Z,7.05
2019-01-04T14:27:20.938Z,8.50
2019-01-04T14:29:55.436Z,6.40
2019-01-04T14:32:29.062Z,6.30
2019-01-04T14:35:02.747Z,7.75
2019-01-04T14:37:36.459Z,6.80
2019-01-04T14:40:11.052Z,8.48
2019-01-04T14:42:44.666Z,7.78
2019-01-04T14:45:18.301Z,7.05
2019-01-04T14:47:51.908Z,6.82
2019-01-04T14:50:25.650Z,6.80
2019-01-04T14:52:59.194Z,7.78
2019-01-04T14:55:32.982Z,7.60
2019-01-04T14:58:06.723Z,7.15
2019-01-04T15:00:40.474Z,8.18
2019-01-04T15:03:14.083Z,7.00
2019-01-04T15:05:50.570Z,6.60
2019-01-04T15:08:21.513Z,7.57
2019-01-04T15:10:55.102Z,5.85
2019-01-04T15:13:28.705Z,7.55
2019-01-04T15:16:02.283Z,6.80
2019-01-04T15:18:36.165Z,8.07
2019-01-04T15:21:09.924Z,6.15
2019-01-04T15:23:43.544Z,8.23
2019-01-04T15:26:17.829Z,6.93
2019-01-04T15:28:51.564Z,7.55
2019-01-04T15:31:25.134Z,7.70
2019-01-04T15:33:58.723Z,6.87
2019-01-04T15:36:32.553Z,8.30
2019-01-04T15:39:06.287Z,7.45
2019-01-04T15:41:40.100Z,7.55
2019-01-04T15:44:13.700Z,6.85
2019-01-04T15:46:47.456Z,6.82
2019-01-04T15:49:21.175Z,7.22
2019-01-04T15:51:54.734Z,8.30
2019-01-04T15:54:28.355Z,5.90
2019-01-04T15:57:02.095Z,5.82
2019-01-04T15:59:35.688Z,7.15
2019-01-04T16:02:09.498Z,7.22
2019-01-04T16:04:43.997Z,7.93
2019-01-04T16:07:17.876Z,7.18
2019-01-04T16:09:51.722Z,8.20
2019-01-04T16:12:25.562Z,9.00
2019-01-04T16:14:59.223Z,5.57
2019-01-04T16:17:32.935Z,7.15
2019-01-04T16:20:07.424Z,6.93
2019-01-04T16:22:41.012Z,6.28
2019-01-04T16:25:14.775Z,6.60
2019-01-04T16:27:48.561Z,7.35
2019-01-04T16:30:22.125Z,7.12
2019-01-04T16:32:55.859Z,6.30
2019-01-04T16:35:29.456Z,5.97
2019-01-04T16:38:03.100Z,6.30
2019-01-04T16:40:37.406Z,6.00
2019-01-04T16:43:11.079Z,6.93
2019-01-04T16:45:44.729Z,6.93
2019-01-04T16:48:19.243Z,7.25
2019-01-04T16:50:52.912Z,7.97
2019-01-04T16:53:27.467Z,6.70
2019-01-04T16:56:01.131Z,6.50
2019-01-04T16:58:34.854Z,7.45
2019-01-04T17:01:08.548Z,6.80
2019-01-04T17:03:42.212Z,7.00
2019-01-04T17:06:15.986Z,7.70
2019-01-04T17:08:49.617Z,7.72
2019-01-04T17:11:23.361Z,8.02
2019-01-04T17:13:57.103Z,8.70
2019-01-04T17:16:30.715Z,8.18
2019-01-04T17:19:04.294Z,12.13
2019-01-04T17:21:38.142Z,9.25
2019-01-04T17:24:12.027Z,7.43
2019-01-04T17:26:45.968Z,7.50
2019-01-04T17:29:19.531Z,8.90
2019-01-04T17:31:53.167Z,7.80
2019-01-04T17:34:26.884Z,7.50
2019-01-04T17:37:00.475Z,8.02
2019-01-04T17:39:33.985Z,7.10
2019-01-04T17:42:07.583Z,7.10
2019-01-04T17:44:41.143Z,7.60
2019-01-04T17:47:14.704Z,7.07
2019-01-04T17:49:48.315Z,7.87
2019-01-04T17:52:22.064Z,5.90
2019-01-04T17:54:55.852Z,7.47
2019-01-04T17:57:29.410Z,5.95
2019-01-04T18:00:03.250Z,11.43
2019-01-04T18:02:36.932Z,7.12
2019-01-04T18:05:10.530Z,7.03
2019-01-04T18:07:44.115Z,6.12
2019-01-04T18:10:17.850Z,6.55
2019-01-04T18:12:51.419Z,5.80
2019-01-04T18:15:24.977Z,5.32
2019-01-04T18:17:58.879Z,6.00
2019-01-04T18:20:32.129Z,5.65
2019-01-04T18:23:05.761Z,5.70
2019-01-04T18:25:39.549Z,4.78
2019-01-04T18:28:13.286Z,5.00
2019-01-04T18:30:47.114Z,5.28
2019-01-04T18:33:21.644Z,6.10
2019-01-04T18:35:55.999Z,5.00
2019-01-04T18:38:29.740Z,6.65
2019-01-04T18:41:03.419Z,6.05
2019-01-04T18:43:37.073Z,6.50
2019-01-04T18:46:10.906Z,5.40
2019-01-04T18:48:44.574Z,5.68
2019-01-04T18:51:18.137Z,5.43
2019-01-04T18:53:51.927Z,7.60
2019-01-04T18:56:25.718Z,6.47
2019-01-04T18:58:59.448Z,5.72
2019-01-04T19:01:33.253Z,5.45
2019-01-04T19:04:06.915Z,6.80
2019-01-04T19:06:40.531Z,6.80
2019-01-04T19:09:14.271Z,5.50
2019-01-04T19:11:47.873Z,5.90
2019-01-04T19:14:22.266Z,5.75
2019-01-04T19:16:55.956Z,7.37
2019-01-04T19:19:30.282Z,7.20
2019-01-04T19:22:03.880Z,7.55
2019-01-04T19:24:37.719Z,7.28
2019-01-04T19:27:11.299Z,6.47
2019-01-04T19:29:45.028Z,6.07
2019-01-04T19:32:19.497Z,6.15
2019-01-04T19:34:53.981Z,6.32
2019-01-04T19:37:27.676Z,6.75
2019-01-04T19:40:01.271Z,6.50
2019-01-04T19:42:35.122Z,7.03
2019-01-04T19:45:09.591Z,6.72
2019-01-04T19:47:43.355Z,7.30
2019-01-04T19:50:17.952Z,8.13
2019-01-04T19:52:51.734Z,6.78
2019-01-04T19:55:25.329Z,8.57
2019-01-04T19:57:59.065Z,7.87
2019-01-04T20:00:32.604Z,6.93
2019-01-04T20:03:06.254Z,7.95
2019-01-04T20:06:03.872Z,7.75
2019-01-04T20:15:32.645Z,10.13
2019-01-04T20:18:24.085Z,8.63
2019-01-04T20:21:03.396Z,7.90
2019-01-04T20:23:52.925Z,7.12
2019-01-04T20:26:32.256Z,7.50
2019-01-04T20:29:21.718Z,6.95
2019-01-04T20:31:55.435Z,6.25
2019-01-04T20:34:30.450Z,7.65
2019-01-04T20:37:23.104Z,7.78
2019-01-04T20:40:02.495Z,8.32
2019-01-04T20:42:36.786Z,8.20
2019-01-04T20:45:26.438Z,8.70
2019-01-04T20:48:16.997Z,8.75
2019-01-04T20:50:56.528Z,9.88
2019-01-04T20:53:37.504Z,8.23
2019-01-04T20:56:26.021Z,7.72
2019-01-04T20:59:00.480Z,7.50
2019-01-04T21:04:45.890Z,10.60
2019-01-04T21:07:36.441Z,8.48
2019-01-04T21:10:13.056Z,9.23
2019-01-04T21:12:46.928Z,7.15
2019-01-04T21:15:37.444Z,8.48
2019-01-04T21:18:11.678Z,7.57
2019-01-04T21:20:48.799Z,8.45
2019-01-04T21:23:37.478Z,8.65
2019-01-04T21:26:11.303Z,9.38
2019-01-04T21:28:47.671Z,8.60
2019-01-04T21:31:26.936Z,7.75
2019-01-04T21:34:20.432Z,6.47
2019-01-04T21:37:08.982Z,9.70
2019-01-04T21:39:45.375Z,8.95
2019-01-04T21:42:24.833Z,7.07
2019-01-04T21:45:02.205Z,8.00
2019-01-04T21:47:53.675Z,7.12
2019-01-04T21:50:30.038Z,8.57
2019-01-04T21:53:09.463Z,7.55
2019-01-04T21:55:47.681Z,8.70
2019-01-04T21:58:36.511Z,7.57
2019-01-04T22:01:14.633Z,7.25
2019-01-04T22:04:02.071Z,8.15
2019-01-04T22:06:50.779Z,9.38
2019-01-04T22:09:30.075Z,8.32
2019-01-04T22:12:19.617Z,9.50
2019-01-04T22:15:03.952Z,6.62
2019-01-04T22:17:43.458Z,8.18
2019-01-04T22:20:18.025Z,8.35
2019-01-04T22:23:10.259Z,8.82
2019-01-04T22:26:00.771Z,7.93
2019-01-04T22:28:40.147Z,6.80
2019-01-04T22:31:23.736Z,6.60
2019-01-04T22:34:03.155Z,4.57
2019-01-04T22:36:37.577Z,8.15
2019-01-04T22:39:23.113Z,8.20
2019-01-04T22:42:02.228Z,7.70
2019-01-04T22:44:51.779Z,7.68
2019-01-04T22:47:31.929Z,8.57
2019-01-04T22:50:11.221Z,6.30
2019-01-04T22:52:50.511Z,7.45
2019-01-04T22:55:38.987Z,8.70
2019-01-04T22:58:17.359Z,7.10
2019-01-04T23:01:10.626Z,8.93
2019-01-04T23:03:49.927Z,8.20
2019-01-04T23:06:36.110Z,7.57
2019-01-04T23:09:15.423Z,8.57
2019-01-04T23:12:04.890Z,7.95
2019-01-04T23:14:55.383Z,8.48
2019-01-04T23:17:35.681Z,7.22
2019-01-04T23:20:12.954Z,7.82
2019-01-04T23:22:52.336Z,6.68
2019-01-04T23:25:30.625Z,9.00
2019-01-04T23:28:10.220Z,7.20
2019-01-04T23:30:49.480Z,7.60
2019-01-04T23:33:27.008Z,7.10
2019-01-04T23:36:17.403Z,6.37
2019-01-04T23:38:57.464Z,6.75
2019-01-04T23:41:32.121Z,7.75
2019-01-04T23:44:14.226Z,7.57
2019-01-04T23:47:03.703Z,9.10
2019-01-04T23:49:42.967Z,7.35
2019-01-04T23:52:32.595Z,7.45
2019-01-04T23:55:14.896Z,7.18
2019-01-04T23:58:09.464Z,6.00
